Time;durP1;ratioP1;P1;durP2;ratioP2;P2;SDS_P1;SDS_P2;PMS_P1;PMS_P2;Temp;Humidity;BMP_temperature;BMP_pressure;BME280_temperature;BME280_humidity;BME280_pressure;Samples;Min_cycle;Max_cycle;Signal;HPM_P1;HPM_P2
2023/04/22 00:02:04;;;;;;;7.35;5.63;;;;;;;;;;5022849;28;20046;-70
2023/04/22 00:04:29;;;;;;;6.38;5.78;;;;;;;;;;5023492;28;20414;-71
2023/04/22 00:06:55;;;;;;;12.20;6.28;;;;;;;;;;5023261;28;20052;-70
2023/04/22 00:09:20;;;;;;;10.80;6.68;;;;;;;;;;5023654;28;20053;-70
2023/04/22 00:11:46;;;;;;;8.18;6.10;;;;;;;;;;5022779;28;20075;-70
2023/04/22 00:14:11;;;;;;;10.73;6.63;;;;;;;;;;5023630;28;20140;-70
2023/04/22 00:16:37;;;;;;;8.23;5.78;;;;;;;;;;5023435;28;20049;-71
2023/04/22 00:19:03;;;;;;;9.48;5.90;;;;;;;;;;5022932;28;20033;-70
2023/04/22 00:21:29;;;;;;;9.43;5.93;;;;;;;;;;5022659;28;20414;-71
2023/04/22 00:23:54;;;;;;;7.97;5.47;;;;;;;;;;5022694;28;20053;-69
2023/04/22 00:26:20;;;;;;;9.52;5.88;;;;;;;;;;5022031;28;20045;-70
2023/04/22 00:28:46;;;;;;;6.63;5.40;;;;;;;;;;5023534;28;20060;-70
2023/04/22 00:31:11;;;;;;;9.60;6.22;;;;;;;;;;5021015;28;20052;-71
2023/04/22 00:33:37;;;;;;;7.97;5.72;;;;;;;;;;5022518;28;20141;-69
2023/04/22 00:36:02;;;;;;;8.93;6.22;;;;;;;;;;5021744;28;20049;-69
2023/04/22 00:38:29;;;;;;;7.72;6.03;;;;;;;;;;5022104;28;20045;-70
2023/04/22 00:40:55;;;;;;;9.82;5.97;;;;;;;;;;5022368;28;20041;-68
2023/04/22 00:43:20;;;;;;;11.82;6.18;;;;;;;;;;5021117;28;20124;-70
2023/04/22 00:45:47;;;;;;;13.02;6.05;;;;;;;;;;5022687;28;20375;-70
2023/04/22 00:48:14;;;;;;;9.10;6.00;;;;;;;;;;5021809;28;20041;-69
2023/04/22 00:50:39;;;;;;;10.52;6.35;;;;;;;;;;5023237;28;20045;-69
2023/04/22 00:53:05;;;;;;;7.50;6.05;;;;;;;;;;5020310;28;20079;-69
2023/04/22 00:55:31;;;;;;;7.57;5.75;;;;;;;;;;5004209;28;20061;-69
2023/04/22 00:57:57;;;;;;;7.95;6.05;;;;;;;;;;5021393;28;20067;-69
2023/04/22 01:00:26;;;;;;;7.53;6.28;;;;;;;;;;5021891;28;20041;-69
2023/04/22 01:02:54;;;;;;;7.18;6.47;;;;;;;;;;5022792;28;20045;-69
2023/04/22 01:05:20;;;;;;;8.52;6.93;;;;;;;;;;5020281;28;20057;-69
2023/04/22 01:07:46;;;;;;;12.35;6.30;;;;;;;;;;5019610;28;20104;-69
2023/04/22 01:10:11;;;;;;;8.77;5.88;;;;;;;;;;5020744;28;20791;-69
2023/04/22 01:12:37;;;;;;;9.32;6.32;;;;;;;;;;5019290;28;20056;-69
2023/04/22 01:15:03;;;;;;;8.07;6.82;;;;;;;;;;5020485;28;20052;-69
2023/04/22 01:17:30;;;;;;;7.57;6.70;;;;;;;;;;5021463;28;20633;-69
2023/04/22 01:19:57;;;;;;;8.15;6.82;;;;;;;;;;5022729;28;20050;-69
2023/04/22 01:22:26;;;;;;;9.00;6.93;;;;;;;;;;5021312;28;20555;-69
2023/04/22 01:24:52;;;;;;;9.32;6.50;;;;;;;;;;5020707;28;20077;-69
2023/04/22 01:27:19;;;;;;;10.18;6.60;;;;;;;;;;5015839;28;20049;-70
2023/04/22 01:29:45;;;;;;;8.25;6.10;;;;;;;;;;5021980;28;20067;-69
2023/04/22 01:32:10;;;;;;;11.63;6.93;;;;;;;;;;5020593;28;20037;-69
2023/04/22 01:34:36;;;;;;;7.30;6.32;;;;;;;;;;5022474;28;20041;-69
2023/04/22 01:37:01;;;;;;;8.38;6.55;;;;;;;;;;5021565;28;20052;-70
2023/04/22 01:39:28;;;;;;;8.98;6.50;;;;;;;;;;5021643;28;20144;-69
2023/04/22 01:41:55;;;;;;;8.85;6.70;;;;;;;;;;5020483;28;20869;-68
2023/04/22 01:44:21;;;;;;;8.20;6.40;;;;;;;;;;5020561;28;20076;-69
2023/04/22 01:46:46;;;;;;;7.07;5.85;;;;;;;;;;5020520;28;20096;-68
2023/04/22 01:49:12;;;;;;;8.07;6.20;;;;;;;;;;5021039;28;20460;-68
2023/04/22 01:51:37;;;;;;;10.80;6.15;;;;;;;;;;5020316;28;20045;-70
2023/04/22 01:54:03;;;;;;;8.35;6.10;;;;;;;;;;5021850;28;20095;-69
2023/04/22 01:56:28;;;;;;;8.05;5.90;;;;;;;;;;5020600;28;21164;-69
2023/04/22 01:58:54;;;;;;;8.95;6.20;;;;;;;;;;5019890;28;20054;-72
2023/04/22 02:01:19;;;;;;;10.95;6.68;;;;;;;;;;5021007;28;20045;-70
2023/04/22 02:03:45;;;;;;;6.68;5.97;;;;;;;;;;5019959;28;20064;-69
2023/04/22 02:06:12;;;;;;;11.82;6.78;;;;;;;;;;5020249;28;20083;-68
2023/04/22 02:08:37;;;;;;;8.90;6.68;;;;;;;;;;5020534;28;20600;-67
2023/04/22 02:11:04;;;;;;;8.60;6.43;;;;;;;;;;5018866;28;20042;-69
2023/04/22 02:13:36;;;;;;;7.43;6.45;;;;;;;;;;5021340;28;20490;-67
2023/04/22 02:16:02;;;;;;;9.50;6.40;;;;;;;;;;5020092;28;20517;-72
2023/04/22 02:18:27;;;;;;;8.05;6.80;;;;;;;;;;5021401;28;20149;-69
2023/04/22 02:20:53;;;;;;;7.05;5.30;;;;;;;;;;5020043;28;20045;-70
2023/04/22 02:23:18;;;;;;;9.55;5.40;;;;;;;;;;5019537;28;20168;-68
2023/04/22 02:25:49;;;;;;;7.18;4.13;;;;;;;;;;5020073;28;20041;-70
2023/04/22 02:28:15;;;;;;;5.93;3.83;;;;;;;;;;5019747;28;20045;-69
2023/04/22 02:30:40;;;;;;;4.28;2.88;;;;;;;;;;5020023;28;20498;-68
2023/04/22 02:33:06;;;;;;;3.65;3.30;;;;;;;;;;5018101;28;20064;-68
2023/04/22 02:35:31;;;;;;;3.55;3.03;;;;;;;;;;5021203;28;20076;-69
2023/04/22 02:37:56;;;;;;;5.30;3.00;;;;;;;;;;5021205;28;20046;-69
2023/04/22 02:40:25;;;;;;;4.53;3.10;;;;;;;;;;5019706;28;20045;-69
2023/04/22 02:42:50;;;;;;;3.00;2.65;;;;;;;;;;5020840;28;20045;-68
2023/04/22 02:45:16;;;;;;;4.20;2.38;;;;;;;;;;5019484;28;20049;-69
2023/04/22 02:47:43;;;;;;;4.18;2.28;;;;;;;;;;5019700;28;20041;-69
2023/04/22 02:50:09;;;;;;;2.83;2.13;;;;;;;;;;5019512;28;20071;-70
2023/04/22 02:52:34;;;;;;;2.95;2.35;;;;;;;;;;5020820;28;20049;-70
2023/04/22 02:55:00;;;;;;;2.80;2.30;;;;;;;;;;5019434;28;20034;-70
2023/04/22 02:57:25;;;;;;;2.20;2.00;;;;;;;;;;5019197;28;20700;-69
2023/04/22 02:59:51;;;;;;;2.63;2.10;;;;;;;;;;5020835;28;20099;-69
2023/04/22 03:02:20;;;;;;;2.83;2.25;;;;;;;;;;5019298;28;20037;-69
2023/04/22 03:05:06;;;;;;;2.22;2.05;;;;;;;;;;5018010;28;20158;-69
2023/04/22 03:07:32;;;;;;;3.08;2.20;;;;;;;;;;5035538;28;20056;-69
2023/04/22 03:09:58;;;;;;;2.70;2.13;;;;;;;;;;5002701;28;20045;-69
2023/04/22 03:12:24;;;;;;;2.95;2.42;;;;;;;;;;5031443;28;20052;-68
2023/04/22 03:14:50;;;;;;;2.55;2.20;;;;;;;;;;5038825;28;20048;-70
2023/04/22 03:17:16;;;;;;;2.58;2.38;;;;;;;;;;5036821;28;20049;-71
2023/04/22 03:19:41;;;;;;;3.22;2.20;;;;;;;;;;5038810;28;20052;-69
2023/04/22 03:22:07;;;;;;;3.03;2.30;;;;;;;;;;5038479;28;20044;-68
2023/04/22 03:24:33;;;;;;;4.43;2.28;;;;;;;;;;5038525;28;20072;-71
2023/04/22 03:27:03;;;;;;;2.28;2.08;;;;;;;;;;5036607;28;20052;-70
2023/04/22 03:29:28;;;;;;;4.07;2.20;;;;;;;;;;5037443;28;20044;-71
2023/04/22 03:31:54;;;;;;;3.72;2.20;;;;;;;;;;5038440;28;20097;-71
2023/04/22 03:34:20;;;;;;;2.75;2.10;;;;;;;;;;5036662;28;20041;-70
2023/04/22 03:36:45;;;;;;;2.00;1.80;;;;;;;;;;5037566;28;20040;-70
2023/04/22 03:39:11;;;;;;;4.22;1.88;;;;;;;;;;5037031;28;21002;-70
2023/04/22 03:41:38;;;;;;;2.63;2.17;;;;;;;;;;5038713;28;20044;-69
2023/04/22 03:44:04;;;;;;;2.13;2.03;;;;;;;;;;5038296;28;20122;-69
2023/04/22 03:46:31;;;;;;;2.22;2.00;;;;;;;;;;5038404;28;20156;-70
2023/04/22 03:49:06;;;;;;;2.75;2.40;;;;;;;;;;5004593;28;20418;-70
2023/04/22 03:51:33;;;;;;;2.25;2.13;;;;;;;;;;5029658;28;20115;-69
2023/04/22 03:54:04;;;;;;;2.67;2.10;;;;;;;;;;5000554;28;20033;-71
2023/04/22 03:56:33;;;;;;;3.03;2.58;;;;;;;;;;5013712;28;20599;-69
2023/04/22 03:58:59;;;;;;;2.72;2.47;;;;;;;;;;5012180;28;20057;-71
2023/04/22 04:01:25;;;;;;;3.67;2.30;;;;;;;;;;5013116;28;20537;-69
2023/04/22 04:03:54;;;;;;;3.35;2.38;;;;;;;;;;5017640;28;20075;-71
2023/04/22 04:06:21;;;;;;;2.75;2.42;;;;;;;;;;5002676;28;20402;-72
2023/04/22 04:08:46;;;;;;;3.38;2.42;;;;;;;;;;5018581;28;20053;-70
2023/04/22 04:11:12;;;;;;;3.78;2.13;;;;;;;;;;5010160;28;20041;-70
2023/04/22 04:13:37;;;;;;;2.58;2.30;;;;;;;;;;5010317;28;20038;-69
2023/04/22 04:16:15;;;;;;;2.85;2.33;;;;;;;;;;5002149;28;20057;-69
2023/04/22 04:18:43;;;;;;;3.28;2.35;;;;;;;;;;5030144;28;20516;-69
2023/04/22 04:21:10;;;;;;;3.63;2.45;;;;;;;;;;5033118;28;20091;-68
2023/04/22 04:23:42;;;;;;;3.60;2.50;;;;;;;;;;5017231;28;20464;-70
2023/04/22 04:26:08;;;;;;;7.65;2.20;;;;;;;;;;5017947;28;20090;-70
2023/04/22 04:28:37;;;;;;;2.50;2.30;;;;;;;;;;5018170;28;20060;-70
2023/04/22 04:31:03;;;;;;;4.85;2.28;;;;;;;;;;5017371;28;20718;-70
2023/04/22 04:33:31;;;;;;;2.45;2.08;;;;;;;;;;5018416;28;20045;-70
2023/04/22 04:35:57;;;;;;;2.63;2.22;;;;;;;;;;5002860;28;20049;-73
2023/04/22 04:38:27;;;;;;;2.88;2.30;;;;;;;;;;5018209;28;20049;-72
2023/04/22 04:40:53;;;;;;;2.20;1.98;;;;;;;;;;5018098;28;20049;-74
2023/04/22 04:43:24;;;;;;;2.60;2.10;;;;;;;;;;5017657;28;20132;-70
2023/04/22 04:45:55;;;;;;;1.42;1.33;;;;;;;;;;5001619;28;20088;-71
2023/04/22 04:48:26;;;;;;;1.73;1.63;;;;;;;;;;5014931;28;20045;-72
2023/04/22 04:50:58;;;;;;;1.67;1.40;;;;;;;;;;5030966;28;20052;-71
2023/04/22 04:53:27;;;;;;;2.15;1.95;;;;;;;;;;5013164;28;20038;-69
2023/04/22 04:55:53;;;;;;;1.80;1.70;;;;;;;;;;5010444;28;20077;-71
2023/04/22 04:58:21;;;;;;;2.53;1.80;;;;;;;;;;5017264;28;20421;-70
2023/04/22 05:00:55;;;;;;;1.80;1.60;;;;;;;;;;5021324;28;20049;-73
2023/04/22 05:03:21;;;;;;;3.15;2.13;;;;;;;;;;5020337;28;20042;-71
2023/04/22 05:05:47;;;;;;;2.58;1.80;;;;;;;;;;5004687;28;20045;-71
2023/04/22 05:08:13;;;;;;;4.10;2.70;;;;;;;;;;5020883;28;20045;-69
2023/04/22 05:10:41;;;;;;;3.63;2.42;;;;;;;;;;5021381;28;20078;-70
2023/04/22 05:13:07;;;;;;;3.50;2.70;;;;;;;;;;5020715;28;20509;-70
2023/04/22 05:15:33;;;;;;;4.40;2.63;;;;;;;;;;5004896;28;20064;-70
2023/04/22 05:17:58;;;;;;;3.13;2.10;;;;;;;;;;5020339;28;20041;-71
2023/04/22 05:20:24;;;;;;;2.13;1.70;;;;;;;;;;5022974;28;20410;-69
2023/04/22 05:22:50;;;;;;;1.33;1.23;;;;;;;;;;5022289;28;20052;-71
2023/04/22 05:25:16;;;;;;;1.40;1.30;;;;;;;;;;5020240;28;20065;-71
2023/04/22 05:27:50;;;;;;;1.23;1.10;;;;;;;;;;5020904;28;20514;-70
2023/04/22 05:30:18;;;;;;;1.83;1.20;;;;;;;;;;5020614;28;20140;-73
2023/04/22 05:32:43;;;;;;;4.35;1.27;;;;;;;;;;5022855;28;20126;-70
2023/04/22 05:35:09;;;;;;;1.35;1.25;;;;;;;;;;5020030;28;20042;-69
2023/04/22 05:37:35;;;;;;;2.05;1.15;;;;;;;;;;5018472;28;20486;-69
2023/04/22 05:40:01;;;;;;;1.33;1.00;;;;;;;;;;5019296;28;20048;-70
2023/04/22 05:42:26;;;;;;;1.40;1.20;;;;;;;;;;5018451;28;20045;-71
2023/04/22 05:44:52;;;;;;;1.48;1.38;;;;;;;;;;5003485;28;20045;-70
2023/04/22 05:47:18;;;;;;;1.38;1.27;;;;;;;;;;5000842;28;20128;-70
2023/04/22 05:49:43;;;;;;;1.73;1.48;;;;;;;;;;5019111;28;20041;-70
2023/04/22 05:52:15;;;;;;;2.75;1.48;;;;;;;;;;5016705;28;20045;-70
2023/04/22 05:55:04;;;;;;;1.67;0.93;;;;;;;;;;5014900;28;20049;-69
2023/04/22 05:57:31;;;;;;;3.40;1.30;;;;;;;;;;5018331;28;20410;-70
2023/04/22 05:59:59;;;;;;;1.30;1.20;;;;;;;;;;5018753;28;20092;-69
2023/04/22 06:02:24;;;;;;;3.05;1.30;;;;;;;;;;5018281;28;20073;-69
2023/04/22 06:04:50;;;;;;;1.50;1.30;;;;;;;;;;5016872;28;20554;-69
2023/04/22 06:07:16;;;;;;;5.68;1.20;;;;;;;;;;5018086;28;20099;-69
2023/04/22 06:09:41;;;;;;;1.27;1.17;;;;;;;;;;5019059;28;20049;-69
2023/04/22 06:12:07;;;;;;;0.93;0.93;;;;;;;;;;5019492;28;20037;-69
2023/04/22 06:14:33;;;;;;;1.33;1.23;;;;;;;;;;5019058;28;20099;-69
2023/04/22 06:16:58;;;;;;;1.20;1.20;;;;;;;;;;5019375;28;20045;-69
2023/04/22 06:19:24;;;;;;;1.58;1.30;;;;;;;;;;5021118;28;20046;-69
2023/04/22 06:21:49;;;;;;;1.30;1.15;;;;;;;;;;5019200;28;20395;-69
2023/04/22 06:24:15;;;;;;;1.00;1.00;;;;;;;;;;5019976;28;20045;-69
2023/04/22 06:26:41;;;;;;;1.25;1.20;;;;;;;;;;5016535;28;20128;-69
2023/04/22 06:29:06;;;;;;;1.48;1.30;;;;;;;;;;5014095;28;20348;-70
2023/04/22 06:31:33;;;;;;;1.25;1.15;;;;;;;;;;4986364;28;20144;-70
2023/04/22 06:33:59;;;;;;;1.10;1.00;;;;;;;;;;5018795;28;20121;-70
2023/04/22 06:36:26;;;;;;;1.23;1.20;;;;;;;;;;5001488;28;20172;-70
2023/04/22 06:38:57;;;;;;;1.08;1.00;;;;;;;;;;5019130;28;20964;-70
2023/04/22 06:41:43;;;;;;;3.55;1.40;;;;;;;;;;5021212;28;20196;-71
2023/04/22 06:44:38;;;;;;;1.58;1.48;;;;;;;;;;5019102;28;20049;-70
2023/04/22 06:47:15;;;;;;;1.65;1.40;;;;;;;;;;5016884;28;20559;-71
2023/04/22 06:49:47;;;;;;;1.60;1.40;;;;;;;;;;5018592;28;20079;-71
2023/04/22 06:52:23;;;;;;;2.05;1.20;;;;;;;;;;5017811;28;21213;-72
2023/04/22 06:54:50;;;;;;;1.20;1.15;;;;;;;;;;5017728;28;20121;-70
2023/04/22 06:57:16;;;;;;;1.30;1.20;;;;;;;;;;5016310;28;20045;-72
2023/04/22 06:59:42;;;;;;;1.33;1.23;;;;;;;;;;5018701;28;20433;-71
2023/04/22 07:02:07;;;;;;;1.63;1.30;;;;;;;;;;5017984;28;20037;-73
2023/04/22 07:04:36;;;;;;;3.42;1.40;;;;;;;;;;5019085;28;20057;-70
2023/04/22 07:07:02;;;;;;;1.30;1.20;;;;;;;;;;5017990;28;20146;-70
2023/04/22 07:09:28;;;;;;;0.93;0.93;;;;;;;;;;5018153;28;20144;-73
2023/04/22 07:11:53;;;;;;;1.20;1.10;;;;;;;;;;5018375;28;20056;-70
2023/04/22 07:14:20;;;;;;;0.90;0.90;;;;;;;;;;5010074;28;20038;-71
2023/04/22 07:16:45;;;;;;;1.63;1.20;;;;;;;;;;5014526;28;20062;-72
2023/04/22 07:19:11;;;;;;;1.27;1.17;;;;;;;;;;5014828;28;20449;-69
2023/04/22 07:21:36;;;;;;;2.30;1.20;;;;;;;;;;5020082;28;20048;-73
2023/04/22 07:24:02;;;;;;;1.77;1.20;;;;;;;;;;5010128;28;20113;-75
2023/04/22 07:26:30;;;;;;;1.42;1.13;;;;;;;;;;5020259;28;20073;-74
2023/04/22 07:28:56;;;;;;;6.28;1.23;;;;;;;;;;5018499;28;20566;-72
2023/04/22 07:31:22;;;;;;;1.20;1.10;;;;;;;;;;5007497;28;20049;-73
2023/04/22 07:33:47;;;;;;;2.10;1.33;;;;;;;;;;5019896;28;20659;-74
2023/04/22 07:36:13;;;;;;;3.30;1.10;;;;;;;;;;5017038;28;20140;-73
2023/04/22 07:38:38;;;;;;;3.72;1.27;;;;;;;;;;5008041;28;20045;-74
2023/04/22 07:41:04;;;;;;;1.08;1.08;;;;;;;;;;5010032;28;20050;-72
2023/04/22 07:43:29;;;;;;;1.05;1.05;;;;;;;;;;5008548;28;20041;-73
2023/04/22 07:45:54;;;;;;;1.35;1.05;;;;;;;;;;5007450;28;20143;-74
2023/04/22 07:48:20;;;;;;;1.45;1.13;;;;;;;;;;5005295;28;20037;-74
2023/04/22 07:50:45;;;;;;;1.73;1.20;;;;;;;;;;5004613;28;20979;-72
2023/04/22 07:53:12;;;;;;;2.25;1.30;;;;;;;;;;5015410;28;20091;-74
2023/04/22 07:55:37;;;;;;;1.27;1.15;;;;;;;;;;5019544;28;20049;-75
2023/04/22 07:58:05;;;;;;;1.40;1.30;;;;;;;;;;5019976;28;20099;-74
2023/04/22 08:00:34;;;;;;;3.45;1.23;;;;;;;;;;5020126;28;20053;-72
2023/04/22 08:03:00;;;;;;;1.33;1.20;;;;;;;;;;5017610;28;20045;-74
2023/04/22 08:05:26;;;;;;;1.23;1.13;;;;;;;;;;5020171;28;20084;-73
2023/04/22 08:07:51;;;;;;;1.92;1.38;;;;;;;;;;5031305;28;20083;-73
2023/04/22 08:10:17;;;;;;;2.00;1.20;;;;;;;;;;5018631;28;20068;-74
2023/04/22 08:12:42;;;;;;;1.92;1.30;;;;;;;;;;5019309;28;20461;-73
2023/04/22 08:15:08;;;;;;;1.08;0.93;;;;;;;;;;5017687;28;20041;-70
2023/04/22 08:17:34;;;;;;;1.27;1.17;;;;;;;;;;5019695;28;20133;-72
2023/04/22 08:19:59;;;;;;;1.20;1.10;;;;;;;;;;5019470;28;20060;-71
2023/04/22 08:22:26;;;;;;;2.25;1.48;;;;;;;;;;5021319;28;20065;-70
2023/04/22 08:24:51;;;;;;;7.38;1.33;;;;;;;;;;5020566;28;20076;-73
2023/04/22 08:27:18;;;;;;;2.08;1.20;;;;;;;;;;5022490;28;20049;-72
2023/04/22 08:29:43;;;;;;;1.15;1.10;;;;;;;;;;5022882;28;20037;-72
2023/04/22 08:32:09;;;;;;;1.15;0.98;;;;;;;;;;5022096;28;20080;-72
2023/04/22 08:34:35;;;;;;;1.00;1.00;;;;;;;;;;5021684;28;20041;-71
2023/04/22 08:37:01;;;;;;;0.88;0.88;;;;;;;;;;5020115;28;20049;-72
2023/04/22 08:39:26;;;;;;;2.47;0.90;;;;;;;;;;5022041;28;20053;-72
2023/04/22 08:41:53;;;;;;;1.38;1.00;;;;;;;;;;5020990;28;20053;-72
2023/04/22 08:44:19;;;;;;;0.88;0.88;;;;;;;;;;5021546;28;20069;-70
2023/04/22 08:46:47;;;;;;;1.15;1.05;;;;;;;;;;5019995;28;20038;-72
2023/04/22 08:49:17;;;;;;;2.22;1.50;;;;;;;;;;5020074;28;20638;-73
2023/04/22 08:51:43;;;;;;;0.88;0.88;;;;;;;;;;5021884;28;20053;-71
2023/04/22 08:54:10;;;;;;;2.22;0.90;;;;;;;;;;5022720;28;20080;-73
2023/04/22 08:56:38;;;;;;;1.13;1.08;;;;;;;;;;5022390;28;20081;-71
2023/04/22 08:59:03;;;;;;;2.22;1.20;;;;;;;;;;5021000;28;20054;-71
2023/04/22 09:01:30;;;;;;;0.90;0.90;;;;;;;;;;5021281;28;20096;-73
2023/04/22 09:03:59;;;;;;;0.90;0.90;;;;;;;;;;5021116;28;20104;-73
2023/04/22 09:06:26;;;;;;;2.13;1.10;;;;;;;;;;5021413;28;20053;-73
2023/04/22 09:08:51;;;;;;;2.75;1.02;;;;;;;;;;5020953;28;20033;-73
2023/04/22 09:11:17;;;;;;;1.65;1.40;;;;;;;;;;5021070;28;20056;-73
2023/04/22 09:13:42;;;;;;;1.17;1.00;;;;;;;;;;5020318;28;20042;-74
2023/04/22 09:16:08;;;;;;;2.97;1.10;;;;;;;;;;5021471;28;20529;-73
2023/04/22 09:18:46;;;;;;;2.08;1.00;;;;;;;;;;5021233;28;20060;-74
2023/04/22 09:21:12;;;;;;;1.05;1.00;;;;;;;;;;5020680;28;20065;-74
2023/04/22 09:23:51;;;;;;;1.48;1.38;;;;;;;;;;5019971;28;20141;-73
2023/04/22 09:26:25;;;;;;;1.33;1.23;;;;;;;;;;5019836;28;20848;-74
2023/04/22 09:28:57;;;;;;;1.10;1.10;;;;;;;;;;5021861;28;20072;-73
2023/04/22 09:31:23;;;;;;;1.92;1.30;;;;;;;;;;5023844;28;20055;-74
2023/04/22 09:33:57;;;;;;;2.55;1.10;;;;;;;;;;5038601;28;20045;-74
2023/04/22 09:36:27;;;;;;;2.45;1.05;;;;;;;;;;5038319;28;20123;-73
2023/04/22 09:38:57;;;;;;;1.25;1.15;;;;;;;;;;5024154;28;20056;-74
2023/04/22 09:41:29;;;;;;;1.52;1.25;;;;;;;;;;5018822;28;20045;-72
2023/04/22 09:43:57;;;;;;;2.70;1.38;;;;;;;;;;5019426;28;20107;-73
2023/04/22 09:46:24;;;;;;;1.40;1.33;;;;;;;;;;5009060;28;20076;-72
2023/04/22 09:48:50;;;;;;;1.95;1.60;;;;;;;;;;5006345;28;20505;-73
2023/04/22 09:51:17;;;;;;;1.35;1.25;;;;;;;;;;5006440;28;20424;-74
2023/04/22 09:53:42;;;;;;;4.32;1.45;;;;;;;;;;5014440;28;20128;-74
2023/04/22 09:56:08;;;;;;;2.92;1.38;;;;;;;;;;5014156;28;20144;-74
2023/04/22 09:58:38;;;;;;;1.50;1.40;;;;;;;;;;5022012;28;20048;-73
2023/04/22 10:01:05;;;;;;;1.15;1.15;;;;;;;;;;5008834;28;20368;-75
2023/04/22 10:03:31;;;;;;;3.85;1.30;;;;;;;;;;5029897;28;20052;-74
2023/04/22 10:05:57;;;;;;;2.13;1.60;;;;;;;;;;5014385;28;20050;-74
2023/04/22 10:08:23;;;;;;;2.13;1.10;;;;;;;;;;5021533;28;20038;-74
2023/04/22 10:10:48;;;;;;;1.35;1.25;;;;;;;;;;5021001;28;20045;-73
2023/04/22 10:13:14;;;;;;;1.65;1.23;;;;;;;;;;5032518;28;20045;-74
2023/04/22 10:15:54;;;;;;;2.05;1.80;;;;;;;;;;5003624;28;20451;-74
2023/04/22 10:18:27;;;;;;;1.55;1.45;;;;;;;;;;5013765;28;20137;-75
2023/04/22 10:20:55;;;;;;;1.77;1.33;;;;;;;;;;5021409;28;20056;-74
2023/04/22 10:23:23;;;;;;;2.63;1.40;;;;;;;;;;5006994;28;20156;-74
2023/04/22 10:25:52;;;;;;;4.75;1.80;;;;;;;;;;5017332;28;20049;-74
2023/04/22 10:28:20;;;;;;;2.08;1.80;;;;;;;;;;5019701;28;20053;-73
2023/04/22 10:30:45;;;;;;;3.03;1.70;;;;;;;;;;5014931;28;20495;-74
2023/04/22 10:33:20;;;;;;;2.72;1.80;;;;;;;;;;5020150;28;20052;-74
2023/04/22 10:36:04;;;;;;;3.00;1.52;;;;;;;;;;5021025;28;20045;-73
2023/04/22 10:38:33;;;;;;;2.00;1.60;;;;;;;;;;5015021;28;20204;-74
2023/04/22 10:40:59;;;;;;;1.60;1.50;;;;;;;;;;5026416;28;20048;-73
2023/04/22 10:43:47;;;;;;;4.63;1.70;;;;;;;;;;5020532;28;20107;-74
2023/04/22 10:46:31;;;;;;;1.70;1.33;;;;;;;;;;5006736;28;20041;-74
2023/04/22 10:48:58;;;;;;;1.50;1.40;;;;;;;;;;5016542;28;20050;-74
2023/04/22 10:51:44;;;;;;;1.60;1.50;;;;;;;;;;5016924;28;20091;-74
2023/04/22 10:54:25;;;;;;;1.60;1.50;;;;;;;;;;5019172;28;20075;-74
2023/04/22 10:57:13;;;;;;;1.63;1.50;;;;;;;;;;5019650;28;20064;-74
2023/04/22 10:59:45;;;;;;;1.67;1.55;;;;;;;;;;5018017;28;20055;-73
2023/04/22 11:02:13;;;;;;;2.05;1.55;;;;;;;;;;5015771;28;20049;-74
2023/04/22 11:04:39;;;;;;;3.70;3.10;;;;;;;;;;5018406;28;20592;-73
2023/04/22 11:07:17;;;;;;;2.88;1.30;;;;;;;;;;5018387;28;20052;-74
2023/04/22 11:09:44;;;;;;;2.63;1.38;;;;;;;;;;5018356;28;20073;-73
2023/04/22 11:12:37;;;;;;;1.55;1.38;;;;;;;;;;5018978;28;20037;-73
2023/04/22 11:15:10;;;;;;;11.43;1.60;;;;;;;;;;5018067;28;20053;-72
2023/04/22 11:17:37;;;;;;;4.22;1.20;;;;;;;;;;5017797;28;20108;-73
2023/04/22 11:20:04;;;;;;;1.13;1.13;;;;;;;;;;5018726;28;20064;-72
2023/04/22 11:22:34;;;;;;;1.95;1.02;;;;;;;;;;5016641;28;20618;-74
2023/04/22 11:25:02;;;;;;;1.15;1.10;;;;;;;;;;5019478;28;20996;-73
2023/04/22 11:27:29;;;;;;;0.90;0.90;;;;;;;;;;5019906;28;20069;-73
2023/04/22 11:30:09;;;;;;;4.45;0.82;;;;;;;;;;5019904;28;20179;-73
2023/04/22 11:32:43;;;;;;;0.82;0.70;;;;;;;;;;5018819;28;20822;-73
2023/04/22 11:35:11;;;;;;;0.60;0.60;;;;;;;;;;5019133;28;20077;-73
2023/04/22 11:37:42;;;;;;;0.50;0.50;;;;;;;;;;5019888;28;20660;-74
2023/04/22 11:40:09;;;;;;;0.90;0.50;;;;;;;;;;5018266;28;20064;-73
2023/04/22 11:42:35;;;;;;;0.57;0.57;;;;;;;;;;5018337;28;20065;-73
2023/04/22 11:45:01;;;;;;;0.63;0.40;;;;;;;;;;5017535;28;20069;-73
2023/04/22 11:47:30;;;;;;;0.93;0.57;;;;;;;;;;5019212;28;20482;-73
2023/04/22 11:49:57;;;;;;;0.60;0.60;;;;;;;;;;5019616;28;20110;-72
2023/04/22 11:52:23;;;;;;;0.60;0.60;;;;;;;;;;5019480;28;20052;-73
2023/04/22 11:54:49;;;;;;;5.20;1.17;;;;;;;;;;5017642;28;20045;-73
2023/04/22 11:57:16;;;;;;;0.77;0.45;;;;;;;;;;5020997;28;20042;-73
2023/04/22 11:59:42;;;;;;;0.95;0.60;;;;;;;;;;5024135;28;20069;-73
2023/04/22 12:02:08;;;;;;;0.80;0.80;;;;;;;;;;5022212;28;21571;-73
2023/04/22 12:04:40;;;;;;;1.95;0.57;;;;;;;;;;5021533;28;20052;-74
2023/04/22 12:07:06;;;;;;;0.50;0.50;;;;;;;;;;5021905;28;20056;-74
2023/04/22 12:09:35;;;;;;;1.98;0.63;;;;;;;;;;5020319;28;20041;-73
2023/04/22 12:12:03;;;;;;;3.83;0.68;;;;;;;;;;5023186;28;20041;-73
2023/04/22 12:14:33;;;;;;;0.60;0.60;;;;;;;;;;5023045;28;20052;-73
2023/04/22 12:17:03;;;;;;;0.60;0.60;;;;;;;;;;5021758;28;20049;-72
2023/04/22 12:19:28;;;;;;;0.90;0.65;;;;;;;;;;5021853;28;20056;-73
2023/04/22 12:21:57;;;;;;;1.58;0.75;;;;;;;;;;5023106;28;20045;-73
2023/04/22 12:24:28;;;;;;;1.85;0.70;;;;;;;;;;5023281;28;20048;-74
2023/04/22 12:26:54;;;;;;;2.38;0.60;;;;;;;;;;5020853;28;20055;-73
2023/04/22 12:29:49;;;;;;;1.30;0.80;;;;;;;;;;5021947;28;20049;-73
2023/04/22 12:32:15;;;;;;;0.88;0.60;;;;;;;;;;5021566;28;20085;-74
2023/04/22 12:34:40;;;;;;;1.58;1.30;;;;;;;;;;5023188;28;20490;-73
2023/04/22 12:37:06;;;;;;;1.98;1.00;;;;;;;;;;5022320;28;20056;-73
2023/04/22 12:39:31;;;;;;;0.90;0.90;;;;;;;;;;5022165;28;20064;-74
2023/04/22 12:41:57;;;;;;;1.20;1.10;;;;;;;;;;5022543;28;21236;-74
2023/04/22 12:44:22;;;;;;;1.77;1.13;;;;;;;;;;5022871;28;20050;-73
2023/04/22 12:46:48;;;;;;;2.83;1.15;;;;;;;;;;5022264;28;20041;-74
2023/04/22 12:49:13;;;;;;;1.30;1.20;;;;;;;;;;5020899;28;20454;-73
2023/04/22 12:51:39;;;;;;;0.70;0.70;;;;;;;;;;5022348;28;20512;-74
2023/04/22 12:54:04;;;;;;;2.00;0.68;;;;;;;;;;5022719;28;20041;-74
2023/04/22 12:56:29;;;;;;;2.88;0.55;;;;;;;;;;5022609;28;20045;-73
2023/04/22 12:58:55;;;;;;;1.33;0.65;;;;;;;;;;5021038;28;20526;-74
2023/04/22 13:01:20;;;;;;;0.85;0.57;;;;;;;;;;5019731;28;20053;-72
2023/04/22 13:03:46;;;;;;;2.10;0.63;;;;;;;;;;5021956;28;20597;-71
2023/04/22 13:06:12;;;;;;;0.50;0.50;;;;;;;;;;5021738;28;20058;-73
2023/04/22 13:08:37;;;;;;;0.47;0.40;;;;;;;;;;5022176;28;20049;-72
2023/04/22 13:11:03;;;;;;;1.00;0.80;;;;;;;;;;5020415;28;20045;-73
2023/04/22 13:13:28;;;;;;;1.00;0.47;;;;;;;;;;5019872;28;20055;-73
2023/04/22 13:15:53;;;;;;;1.08;0.90;;;;;;;;;;5020644;28;20041;-73
2023/04/22 13:18:20;;;;;;;0.70;0.70;;;;;;;;;;5022190;28;20565;-73
2023/04/22 13:20:46;;;;;;;0.70;0.70;;;;;;;;;;5022014;28;20050;-73
2023/04/22 13:23:12;;;;;;;0.60;0.60;;;;;;;;;;5020938;28;20418;-74
2023/04/22 13:25:37;;;;;;;0.50;0.50;;;;;;;;;;5021571;28;20045;-73
2023/04/22 13:28:03;;;;;;;0.60;0.60;;;;;;;;;;5021788;28;20037;-73
2023/04/22 13:30:28;;;;;;;0.80;0.80;;;;;;;;;;5022108;28;20051;-74
2023/04/22 13:32:54;;;;;;;2.35;0.80;;;;;;;;;;5021130;28;20057;-73
2023/04/22 13:35:19;;;;;;;0.68;0.63;;;;;;;;;;5019843;28;20107;-73
2023/04/22 13:37:45;;;;;;;0.75;0.70;;;;;;;;;;5022157;28;20107;-73
2023/04/22 13:40:11;;;;;;;0.70;0.70;;;;;;;;;;5020283;28;20498;-72
2023/04/22 13:42:36;;;;;;;0.90;0.90;;;;;;;;;;5021249;28;20057;-72
2023/04/22 13:45:02;;;;;;;2.38;0.80;;;;;;;;;;5019010;28;20053;-73
2023/04/22 13:47:27;;;;;;;1.17;0.77;;;;;;;;;;5021551;28;20173;-72
2023/04/22 13:49:53;;;;;;;1.55;1.00;;;;;;;;;;5022102;28;20049;-72
2023/04/22 13:52:18;;;;;;;1.08;0.70;;;;;;;;;;5021635;28;20045;-72
2023/04/22 13:54:44;;;;;;;1.15;0.90;;;;;;;;;;5019799;28;20061;-72
2023/04/22 13:57:10;;;;;;;3.90;0.70;;;;;;;;;;5020677;28;20055;-72
2023/04/22 13:59:36;;;;;;;1.13;0.80;;;;;;;;;;5021915;28;20565;-72
2023/04/22 14:02:01;;;;;;;1.58;0.88;;;;;;;;;;5020324;28;20134;-72
2023/04/22 14:04:27;;;;;;;3.08;1.00;;;;;;;;;;5021368;28;20061;-73
2023/04/22 14:06:52;;;;;;;0.73;0.73;;;;;;;;;;5020402;28;20045;-71
2023/04/22 14:09:18;;;;;;;1.20;1.10;;;;;;;;;;5021075;28;20041;-71
2023/04/22 14:11:43;;;;;;;1.10;0.80;;;;;;;;;;5021216;28;20171;-71
2023/04/22 14:14:08;;;;;;;0.82;0.82;;;;;;;;;;5021072;28;20144;-71
2023/04/22 14:16:34;;;;;;;1.88;0.85;;;;;;;;;;5020357;28;20053;-73
2023/04/22 14:19:01;;;;;;;1.75;0.82;;;;;;;;;;5020354;28;20041;-71
2023/04/22 14:21:27;;;;;;;2.65;0.70;;;;;;;;;;5018863;28;20522;-71
2023/04/22 14:23:53;;;;;;;1.90;0.80;;;;;;;;;;5018091;28;20564;-71
2023/04/22 14:26:18;;;;;;;0.90;0.90;;;;;;;;;;5019283;28;20033;-71
2023/04/22 14:28:44;;;;;;;1.70;0.88;;;;;;;;;;5018148;28;20104;-72
2023/04/22 14:31:09;;;;;;;4.03;0.93;;;;;;;;;;5017852;28;20068;-72
2023/04/22 14:33:35;;;;;;;1.20;0.85;;;;;;;;;;5017910;28;20057;-72
2023/04/22 14:36:00;;;;;;;0.85;0.70;;;;;;;;;;5017451;28;20037;-72
2023/04/22 14:38:26;;;;;;;0.93;0.75;;;;;;;;;;5017965;28;20935;-73
2023/04/22 14:40:52;;;;;;;0.98;0.90;;;;;;;;;;5018299;28;20041;-71
2023/04/22 14:43:18;;;;;;;2.50;0.93;;;;;;;;;;5019500;28;20041;-75
2023/04/22 14:45:45;;;;;;;0.77;0.70;;;;;;;;;;5037289;28;20045;-72